createdAt,value
2023-04-29T00:01:44.763Z,99.90
2023-04-29T00:04:12.030Z,99.90
2023-04-29T00:06:38.857Z,99.90
2023-04-29T00:09:06.440Z,99.90
2023-04-29T00:11:33.177Z,99.90
2023-04-29T00:14:00.212Z,99.90
2023-04-29T00:16:26.990Z,99.90
2023-04-29T00:18:54.094Z,99.90
2023-04-29T00:23:47.961Z,99.90
2023-04-29T00:26:15.097Z,99.90
2023-04-29T00:28:42.344Z,99.90
2023-04-29T00:31:09.139Z,99.90
2023-04-29T00:33:36.176Z,99.90
2023-04-29T00:36:03.519Z,99.90
2023-04-29T00:38:30.234Z,99.90
2023-04-29T00:40:57.533Z,99.90
2023-04-29T00:43:24.610Z,99.90
2023-04-29T00:45:51.558Z,99.90
2023-04-29T00:48:18.325Z,99.90
2023-04-29T00:50:45.356Z,99.90
2023-04-29T00:53:12.872Z,99.90
2023-04-29T00:55:40.048Z,99.90
2023-04-29T00:58:07.565Z,99.90
2023-04-29T01:00:34.623Z,99.90
2023-04-29T01:03:01.933Z,99.90
2023-04-29T01:05:28.882Z,99.90
2023-04-29T01:08:42.430Z,99.90
2023-04-29T01:11:11.495Z,99.90
2023-04-29T01:13:50.644Z,99.90
2023-04-29T01:16:29.621Z,99.90
2023-04-29T01:18:58.812Z,99.90
2023-04-29T01:21:25.908Z,99.90
2023-04-29T01:23:56.110Z,99.90
2023-04-29T01:26:23.920Z,99.90
2023-04-29T01:28:56.792Z,99.90
2023-04-29T01:31:53.144Z,99.90
2023-04-29T01:34:33.346Z,99.90
2023-04-29T01:37:03.360Z,99.90
2023-04-29T01:40:01.879Z,99.90
2023-04-29T01:42:52.369Z,99.90
2023-04-29T01:45:21.317Z,99.90
2023-04-29T01:47:48.155Z,99.90
2023-04-29T01:50:14.958Z,99.90
2023-04-29T01:52:41.712Z,99.90
2023-04-29T01:55:09.003Z,99.90
2023-04-29T01:57:35.749Z,99.90
2023-04-29T02:00:02.564Z,99.90
2023-04-29T02:02:29.650Z,99.90
2023-04-29T02:04:56.676Z,99.90
2023-04-29T02:07:23.445Z,99.90
2023-04-29T02:09:50.902Z,99.90
2023-04-29T02:12:20.323Z,99.90
2023-04-29T02:14:48.247Z,99.90
2023-04-29T02:17:15.252Z,99.90
2023-04-29T02:19:45.109Z,99.90
2023-04-29T02:22:14.702Z,99.90
2023-04-29T02:24:41.474Z,99.90
2023-04-29T02:27:08.556Z,99.90
2023-04-29T02:29:35.298Z,99.90
2023-04-29T02:32:02.432Z,99.90
2023-04-29T02:34:29.304Z,99.90
2023-04-29T02:36:56.103Z,99.90
2023-04-29T02:39:22.864Z,99.90
2023-04-29T02:41:54.777Z,99.90
2023-04-29T02:44:21.651Z,99.90
2023-04-29T02:46:48.722Z,99.90
2023-04-29T02:49:15.461Z,99.90
2023-04-29T02:51:42.788Z,99.90
2023-04-29T02:54:09.509Z,99.90
2023-04-29T02:56:36.240Z,99.90
2023-04-29T02:59:03.159Z,99.90
2023-04-29T03:01:30.003Z,99.90
2023-04-29T03:03:57.782Z,99.90
2023-04-29T03:06:25.030Z,99.90
2023-04-29T03:08:53.254Z,99.90
2023-04-29T03:11:20.695Z,99.90
2023-04-29T03:13:47.805Z,99.90
2023-04-29T03:16:16.751Z,99.90
2023-04-29T03:18:44.386Z,99.90
2023-04-29T03:21:11.134Z,99.90
2023-04-29T03:23:39.487Z,99.90
2023-04-29T03:26:06.548Z,99.90
2023-04-29T03:28:33.257Z,99.90
2023-04-29T03:31:00.742Z,99.90
2023-04-29T03:33:27.512Z,99.90
2023-04-29T03:35:54.803Z,99.90
2023-04-29T03:38:21.786Z,99.90
2023-04-29T03:40:48.777Z,99.90
2023-04-29T03:43:15.570Z,99.90
2023-04-29T03:45:42.478Z,99.90
2023-04-29T03:48:09.480Z,99.90
2023-04-29T03:50:36.989Z,99.90
2023-04-29T03:53:04.003Z,99.90
2023-04-29T03:55:30.876Z,99.90
2023-04-29T03:57:57.876Z,99.90
2023-04-29T04:00:26.568Z,99.90
2023-04-29T04:02:53.751Z,99.90
2023-04-29T04:05:21.425Z,99.90
2023-04-29T04:07:48.234Z,99.90
2023-04-29T04:10:15.161Z,99.90
2023-04-29T04:12:44.164Z,99.90
2023-04-29T04:15:11.282Z,99.90
2023-04-29T04:17:38.099Z,99.90
2023-04-29T04:20:05.878Z,99.90
2023-04-29T04:22:32.946Z,99.90
2023-04-29T04:24:59.940Z,99.90
2023-04-29T04:27:26.929Z,99.90
2023-04-29T04:29:54.916Z,99.90
2023-04-29T04:32:23.844Z,99.90
2023-04-29T04:34:50.713Z,99.90
2023-04-29T04:37:17.901Z,99.90
2023-04-29T04:39:44.830Z,99.90
2023-04-29T04:42:11.544Z,99.90
2023-04-29T04:44:39.037Z,99.90
2023-04-29T04:47:06.772Z,99.90
2023-04-29T04:49:33.554Z,99.90
2023-04-29T04:52:00.497Z,99.90
2023-04-29T04:54:27.278Z,99.90
2023-04-29T04:56:54.345Z,99.90
2023-04-29T04:59:21.188Z,99.90
2023-04-29T05:01:49.490Z,99.90
2023-04-29T05:04:16.688Z,99.90
2023-04-29T05:06:43.868Z,99.90
2023-04-29T05:09:10.905Z,99.90
2023-04-29T05:11:37.786Z,99.90
2023-04-29T05:14:05.280Z,99.90
2023-04-29T05:16:32.517Z,99.90
2023-04-29T05:18:59.631Z,99.90
2023-04-29T05:21:26.330Z,99.90
2023-04-29T05:23:53.060Z,99.90
2023-04-29T05:26:19.934Z,99.90
2023-04-29T05:28:46.817Z,99.90
2023-04-29T05:31:13.599Z,99.90
2023-04-29T05:33:40.460Z,99.90
2023-04-29T05:36:07.593Z,99.90
2023-04-29T05:38:34.685Z,99.90
2023-04-29T05:41:01.506Z,99.90
2023-04-29T05:43:29.933Z,99.90
2023-04-29T05:45:56.681Z,99.90
2023-04-29T05:48:24.761Z,99.90
2023-04-29T05:50:51.617Z,99.90
2023-04-29T05:53:18.378Z,99.90
2023-04-29T05:55:47.692Z,99.90
2023-04-29T05:58:15.417Z,99.90
2023-04-29T06:00:43.805Z,99.90
2023-04-29T06:03:12.417Z,99.90
2023-04-29T06:05:39.896Z,99.90
2023-04-29T06:08:07.015Z,99.90
2023-04-29T06:10:34.385Z,99.90
2023-04-29T06:13:01.159Z,99.90
2023-04-29T06:15:28.348Z,99.90
2023-04-29T06:17:55.395Z,99.90
2023-04-29T06:20:22.215Z,99.90
2023-04-29T06:22:49.688Z,99.90
2023-04-29T06:25:16.545Z,99.90
2023-04-29T06:27:43.479Z,99.90
2023-04-29T06:30:11.521Z,99.90
2023-04-29T06:32:39.412Z,99.90
2023-04-29T06:35:07.098Z,99.90
2023-04-29T06:37:36.412Z,99.90
2023-04-29T06:40:04.804Z,99.90
2023-04-29T06:42:31.846Z,99.90
2023-04-29T06:44:58.553Z,99.90
2023-04-29T06:47:25.626Z,99.90
2023-04-29T06:49:53.582Z,99.90
2023-04-29T06:52:20.558Z,99.90
2023-04-29T06:54:47.577Z,99.90
2023-04-29T06:57:14.303Z,99.90
2023-04-29T06:59:41.245Z,99.90
2023-04-29T07:02:07.992Z,99.90
2023-04-29T07:04:35.166Z,99.90
2023-04-29T07:07:02.200Z,99.90
2023-04-29T07:09:29.465Z,99.90
2023-04-29T07:11:56.417Z,99.90
2023-04-29T07:14:23.390Z,99.90
2023-04-29T07:16:54.378Z,99.90
2023-04-29T07:19:21.186Z,99.90
2023-04-29T07:21:47.958Z,99.90
2023-04-29T07:24:15.088Z,99.90
2023-04-29T07:26:43.832Z,99.90
2023-04-29T07:29:10.865Z,99.90
2023-04-29T07:31:38.659Z,99.90
2023-04-29T07:34:06.182Z,99.90
2023-04-29T07:36:33.399Z,99.90
2023-04-29T07:39:00.333Z,99.90
2023-04-29T07:41:28.950Z,99.90
2023-04-29T07:43:55.698Z,99.90
2023-04-29T07:46:22.555Z,99.90
2023-04-29T07:48:49.414Z,99.90
2023-04-29T07:51:16.134Z,99.90
2023-04-29T07:53:43.799Z,99.90
2023-04-29T07:56:10.738Z,99.90
2023-04-29T07:58:38.903Z,99.90
2023-04-29T08:01:10.133Z,99.90
2023-04-29T08:03:40.430Z,99.90
2023-04-29T08:06:08.684Z,99.90
2023-04-29T08:08:35.707Z,99.90
2023-04-29T08:11:02.825Z,99.90
2023-04-29T08:13:29.607Z,99.90
2023-04-29T08:15:56.872Z,99.90
2023-04-29T08:18:23.678Z,99.90
2023-04-29T08:20:51.426Z,99.90
2023-04-29T08:23:18.207Z,99.90
2023-04-29T08:25:45.444Z,99.90
2023-04-29T08:28:12.508Z,99.90
2023-04-29T08:30:40.960Z,99.90
2023-04-29T08:33:08.554Z,99.90
2023-04-29T08:35:38.829Z,99.90
2023-04-29T08:38:06.845Z,99.90
2023-04-29T08:40:38.826Z,99.90
2023-04-29T08:43:05.646Z,99.90
2023-04-29T08:45:32.548Z,99.90
2023-04-29T08:47:59.723Z,99.90
2023-04-29T08:50:26.492Z,99.90
2023-04-29T08:52:53.280Z,99.90
2023-04-29T08:55:20.120Z,99.90
2023-04-29T08:57:46.887Z,99.90
2023-04-29T09:00:14.082Z,99.90
2023-04-29T09:02:48.683Z,99.90
2023-04-29T09:05:15.521Z,99.90
2023-04-29T09:07:42.508Z,99.90
2023-04-29T09:10:09.783Z,99.90
2023-04-29T09:12:36.631Z,99.90
2023-04-29T09:15:04.463Z,99.90
2023-04-29T09:17:43.447Z,99.90
2023-04-29T09:20:22.481Z,99.90
2023-04-29T09:22:53.954Z,99.90
2023-04-29T09:25:21.709Z,99.90
2023-04-29T09:27:48.548Z,99.90
2023-04-29T09:30:16.674Z,99.90
2023-04-29T09:32:45.137Z,99.90
2023-04-29T09:35:21.280Z,99.90
2023-04-29T09:37:48.526Z,99.90
2023-04-29T09:43:19.220Z,99.90
2023-04-29T09:45:48.534Z,99.90
2023-04-29T09:48:15.824Z,99.90
2023-04-29T09:50:44.371Z,99.90
2023-04-29T09:53:11.881Z,99.90
2023-04-29T09:55:56.864Z,99.90
2023-04-29T09:58:37.983Z,99.90
2023-04-29T10:01:07.751Z,99.90
2023-04-29T10:03:36.594Z,99.90
2023-04-29T10:06:05.868Z,99.90
2023-04-29T10:08:34.194Z,99.90
2023-04-29T10:11:04.047Z,99.90
2023-04-29T10:13:31.989Z,99.90
2023-04-29T10:16:29.771Z,99.90
2023-04-29T10:18:57.501Z,99.90
2023-04-29T10:21:29.684Z,99.90
2023-04-29T10:23:58.050Z,99.90
2023-04-29T10:26:29.676Z,99.90
2023-04-29T10:31:42.206Z,99.90
2023-04-29T10:34:12.929Z,99.90
2023-04-29T10:36:39.975Z,99.90
2023-04-29T10:39:09.584Z,99.90
2023-04-29T10:41:47.316Z,99.90
2023-04-29T10:44:14.441Z,99.90
2023-04-29T10:46:41.892Z,99.90
2023-04-29T10:49:09.230Z,99.90
2023-04-29T10:51:44.475Z,99.90
2023-04-29T10:54:15.354Z,99.90
2023-04-29T10:56:50.536Z,99.90
2023-04-29T10:59:20.932Z,99.90
2023-04-29T11:01:47.648Z,99.90
2023-04-29T11:04:14.804Z,99.90
2023-04-29T11:06:44.371Z,99.90
2023-04-29T11:09:19.288Z,99.90
2023-04-29T11:12:00.746Z,99.90
2023-04-29T11:14:42.409Z,99.90
2023-04-29T11:17:16.465Z,99.90
2023-04-29T11:19:51.653Z,99.90
2023-04-29T11:22:28.293Z,99.90
2023-04-29T11:25:00.585Z,99.90
2023-04-29T11:27:32.495Z,99.90
2023-04-29T11:30:00.799Z,99.90
2023-04-29T11:32:28.937Z,99.90
2023-04-29T11:34:56.256Z,99.90
2023-04-29T11:37:24.952Z,99.90
2023-04-29T11:39:58.251Z,99.90
2023-04-29T11:42:25.302Z,99.90
2023-04-29T11:44:54.009Z,99.90
2023-04-29T11:47:24.109Z,99.90
2023-04-29T11:49:50.886Z,99.90
2023-04-29T11:52:17.697Z,99.90
2023-04-29T11:54:44.580Z,99.90
2023-04-29T11:57:11.442Z,99.90
2023-04-29T11:59:38.252Z,99.90
2023-04-29T12:02:04.942Z,99.90
2023-04-29T12:04:32.249Z,99.90
2023-04-29T12:06:59.745Z,99.90
2023-04-29T12:09:26.837Z,99.40
2023-04-29T12:11:53.565Z,98.40
2023-04-29T12:14:20.464Z,98.50
2023-04-29T12:16:47.472Z,98.00
2023-04-29T12:19:14.504Z,98.60
2023-04-29T12:21:49.310Z,98.70
2023-04-29T12:24:17.152Z,98.80
2023-04-29T12:26:45.679Z,98.50
2023-04-29T12:29:13.713Z,98.40
2023-04-29T12:31:41.645Z,98.70
2023-04-29T12:34:10.141Z,98.50
2023-04-29T12:36:37.720Z,98.80
2023-04-29T12:39:07.274Z,98.50
2023-04-29T12:41:41.138Z,98.30
2023-04-29T12:44:08.765Z,97.40
2023-04-29T12:46:42.413Z,97.30
2023-04-29T12:49:09.472Z,97.10
2023-04-29T12:51:37.023Z,97.10
2023-04-29T12:54:04.932Z,96.40
2023-04-29T12:56:32.132Z,95.70
2023-04-29T12:59:06.412Z,96.50
2023-04-29T13:01:33.520Z,98.20
2023-04-29T13:04:00.458Z,98.90
2023-04-29T13:06:27.414Z,99.20
2023-04-29T13:08:54.948Z,98.90
2023-04-29T13:11:21.704Z,98.70
2023-04-29T13:16:33.950Z,98.80
2023-04-29T13:19:13.078Z,99.00
2023-04-29T13:21:50.958Z,99.10
2023-04-29T13:24:24.246Z,98.90
2023-04-29T13:26:52.659Z,98.80
2023-04-29T13:29:20.073Z,97.50
2023-04-29T13:31:47.168Z,96.80
2023-04-29T13:34:14.325Z,96.50
2023-04-29T13:36:41.259Z,95.90
2023-04-29T13:39:08.791Z,94.10
2023-04-29T13:41:35.827Z,93.50
2023-04-29T13:44:04.897Z,93.00
2023-04-29T13:46:34.759Z,92.10
2023-04-29T13:49:29.366Z,91.30
2023-04-29T13:52:30.603Z,99.90
2023-04-29T13:54:58.902Z,87.90
2023-04-29T13:59:55.125Z,85.70
2023-04-29T14:02:25.730Z,84.90
2023-04-29T14:04:53.579Z,85.50
2023-04-29T14:07:21.024Z,87.50
2023-04-29T14:09:49.555Z,88.80
2023-04-29T14:12:16.275Z,88.80
2023-04-29T14:14:43.098Z,89.90
2023-04-29T14:17:09.852Z,90.40
2023-04-29T14:19:36.682Z,91.00
2023-04-29T14:22:03.442Z,91.50
2023-04-29T14:24:30.929Z,91.90
2023-04-29T14:26:58.008Z,92.40
2023-04-29T14:29:24.930Z,92.60
2023-04-29T14:31:52.048Z,92.60
2023-04-29T14:34:19.798Z,92.60
2023-04-29T14:36:47.972Z,92.60
2023-04-29T14:39:14.732Z,93.20
2023-04-29T14:41:41.901Z,93.20
2023-04-29T14:44:08.650Z,93.50
2023-04-29T14:46:35.572Z,93.80
2023-04-29T14:49:02.632Z,93.80
2023-04-29T14:51:29.744Z,94.00
2023-04-29T14:53:56.570Z,94.40
2023-04-29T14:56:23.365Z,94.70
2023-04-29T14:58:50.383Z,95.20
2023-04-29T15:01:17.413Z,95.80
2023-04-29T15:03:45.152Z,96.40
2023-04-29T15:06:12.688Z,97.40
2023-04-29T15:08:39.602Z,98.20
2023-04-29T15:11:06.710Z,98.60
2023-04-29T15:13:33.599Z,99.10
2023-04-29T15:16:00.753Z,99.50
2023-04-29T15:18:27.575Z,99.90
2023-04-29T15:20:54.359Z,99.90
2023-04-29T15:23:21.342Z,99.90
2023-04-29T15:25:48.420Z,99.90
2023-04-29T15:28:15.230Z,99.90
2023-04-29T15:30:42.281Z,99.90
2023-04-29T15:33:09.162Z,99.90
2023-04-29T15:35:37.062Z,99.90
2023-04-29T15:38:03.763Z,99.90
2023-04-29T15:40:30.705Z,99.90
2023-04-29T15:42:57.445Z,99.90
2023-04-29T15:45:24.574Z,99.90
2023-04-29T15:47:51.472Z,99.90
2023-04-29T15:50:18.643Z,99.90
2023-04-29T15:52:45.564Z,99.90
2023-04-29T15:55:12.395Z,99.90
2023-04-29T15:57:42.721Z,99.90
2023-04-29T16:00:10.221Z,99.90
2023-04-29T16:02:37.307Z,99.90
2023-04-29T16:05:04.791Z,99.90
2023-04-29T16:07:32.458Z,99.90
2023-04-29T16:10:00.596Z,99.90
2023-04-29T16:12:28.883Z,99.90
2023-04-29T16:14:55.608Z,99.90
2023-04-29T16:17:22.436Z,99.90
2023-04-29T16:19:49.509Z,99.90
2023-04-29T16:22:16.268Z,99.90
2023-04-29T16:24:43.435Z,99.90
2023-04-29T16:27:10.606Z,99.90
2023-04-29T16:29:39.865Z,99.90
2023-04-29T16:32:06.787Z,99.90
2023-04-29T16:34:33.536Z,99.90
2023-04-29T16:37:00.804Z,99.90
2023-04-29T16:39:27.624Z,99.90
2023-04-29T16:41:54.374Z,99.90
2023-04-29T16:44:21.698Z,99.90
2023-04-29T16:46:48.487Z,99.90
2023-04-29T16:49:15.846Z,99.90
2023-04-29T16:51:42.903Z,99.90
2023-04-29T16:54:09.973Z,99.90
2023-04-29T16:56:37.382Z,99.90
2023-04-29T16:59:04.132Z,99.90
2023-04-29T17:01:32.148Z,99.90
2023-04-29T17:03:59.655Z,99.90
2023-04-29T17:06:26.534Z,99.90
2023-04-29T17:08:53.760Z,99.90
2023-04-29T17:11:20.549Z,99.90
2023-04-29T17:13:47.885Z,99.90
2023-04-29T17:16:15.005Z,99.90
2023-04-29T17:18:43.254Z,99.90
2023-04-29T17:21:10.327Z,99.90
2023-04-29T17:23:37.923Z,99.90
2023-04-29T17:26:04.915Z,99.90
2023-04-29T17:28:34.425Z,99.90
2023-04-29T17:31:02.303Z,99.90
2023-04-29T17:33:34.461Z,99.90
2023-04-29T17:36:02.400Z,99.90
2023-04-29T17:38:30.233Z,99.90
2023-04-29T17:40:57.033Z,99.90
2023-04-29T17:43:24.117Z,99.90
2023-04-29T17:45:50.951Z,99.90
2023-04-29T17:48:19.280Z,99.90
2023-04-29T17:50:46.806Z,99.90
2023-04-29T17:53:13.770Z,99.90
2023-04-29T17:55:41.746Z,99.90
2023-04-29T17:58:08.658Z,99.90
2023-04-29T18:00:35.797Z,99.90
2023-04-29T18:03:03.662Z,99.90
2023-04-29T18:05:30.686Z,99.90
2023-04-29T18:07:57.695Z,99.90
2023-04-29T18:10:24.380Z,99.90
2023-04-29T18:12:51.160Z,99.90
2023-04-29T18:15:18.103Z,99.90
2023-04-29T18:17:44.979Z,99.90
2023-04-29T18:20:12.942Z,99.90
2023-04-29T18:22:39.846Z,99.90
2023-04-29T18:25:07.384Z,99.90
2023-04-29T18:27:34.166Z,99.90
2023-04-29T18:30:01.314Z,99.90
2023-04-29T18:32:28.077Z,99.90
2023-04-29T18:34:54.912Z,99.90
2023-04-29T18:37:21.685Z,99.90
2023-04-29T18:39:48.418Z,99.90
2023-04-29T18:42:15.146Z,99.90
2023-04-29T18:44:42.254Z,99.90
2023-04-29T18:47:09.411Z,99.90
2023-04-29T18:49:38.159Z,99.90
2023-04-29T18:52:06.678Z,99.90
2023-04-29T18:54:33.833Z,99.90
2023-04-29T18:57:00.602Z,99.90
2023-04-29T18:59:27.573Z,99.90
2023-04-29T19:01:54.397Z,99.90
2023-04-29T19:04:21.986Z,99.90
2023-04-29T19:06:48.802Z,99.90
2023-04-29T19:09:15.603Z,99.90
2023-04-29T19:11:42.477Z,99.90
2023-04-29T19:14:09.275Z,99.90
2023-04-29T19:16:37.313Z,99.90
2023-04-29T19:19:04.593Z,99.90
2023-04-29T19:21:33.404Z,99.90
2023-04-29T19:24:00.272Z,99.90
2023-04-29T19:26:27.155Z,99.90
2023-04-29T19:28:54.000Z,99.90
2023-04-29T19:31:21.545Z,99.90
2023-04-29T19:33:48.638Z,99.90
2023-04-29T19:36:17.865Z,99.90
2023-04-29T19:38:44.668Z,99.90
2023-04-29T19:41:11.771Z,99.90
2023-04-29T19:43:38.576Z,99.90
2023-04-29T19:46:05.941Z,99.90
2023-04-29T19:48:33.309Z,99.90
2023-04-29T19:51:00.956Z,99.90
2023-04-29T19:53:27.921Z,99.90
2023-04-29T19:55:55.085Z,99.90
2023-04-29T19:58:21.884Z,99.90
2023-04-29T20:00:48.806Z,99.90
2023-04-29T20:03:15.990Z,99.90
2023-04-29T20:05:43.347Z,99.90
2023-04-29T20:08:13.239Z,99.90
2023-04-29T20:10:41.475Z,99.90
2023-04-29T20:13:08.517Z,99.90
2023-04-29T20:15:35.732Z,99.90
2023-04-29T20:18:02.976Z,99.90
2023-04-29T20:20:29.948Z,99.90
2023-04-29T20:23:00.179Z,99.90
2023-04-29T20:25:29.497Z,99.90
2023-04-29T20:27:57.764Z,99.90
2023-04-29T20:30:26.553Z,99.90
2023-04-29T20:32:53.581Z,99.90
2023-04-29T20:35:20.833Z,99.90
2023-04-29T20:37:48.247Z,99.90
2023-04-29T20:40:15.302Z,99.90
2023-04-29T20:42:42.486Z,99.90
2023-04-29T20:45:09.843Z,99.90
2023-04-29T20:47:36.937Z,99.90
2023-04-29T20:50:04.761Z,99.90
2023-04-29T20:52:31.816Z,99.90
2023-04-29T20:54:58.818Z,99.90
2023-04-29T20:57:26.035Z,99.90
2023-04-29T20:59:53.070Z,99.90
2023-04-29T21:02:21.030Z,99.90
2023-04-29T21:04:48.888Z,99.90
2023-04-29T21:07:15.844Z,99.90
2023-04-29T21:09:42.713Z,99.90
2023-04-29T21:12:09.535Z,99.90
2023-04-29T21:14:38.264Z,99.90
2023-04-29T21:17:05.834Z,99.90
2023-04-29T21:19:35.307Z,99.90
2023-04-29T21:22:02.465Z,99.90
2023-04-29T21:24:31.332Z,99.90
2023-04-29T21:26:58.153Z,99.90
2023-04-29T21:29:25.180Z,99.90
2023-04-29T21:31:52.327Z,99.90
2023-04-29T21:34:19.192Z,99.90
2023-04-29T21:36:45.932Z,99.90
2023-04-29T21:39:12.816Z,99.90
2023-04-29T21:41:41.251Z,99.90
2023-04-29T21:44:08.118Z,99.90
2023-04-29T21:46:35.017Z,99.90
2023-04-29T21:49:03.190Z,99.90
2023-04-29T21:51:30.426Z,99.90
2023-04-29T21:53:57.282Z,99.90
2023-04-29T21:56:24.709Z,99.90
2023-04-29T21:58:52.999Z,99.90
2023-04-29T22:01:26.773Z,99.90
2023-04-29T22:03:56.263Z,99.90
2023-04-29T22:06:23.638Z,99.90
2023-04-29T22:08:50.744Z,99.90
2023-04-29T22:11:18.326Z,99.90
2023-04-29T22:13:45.953Z,99.90
2023-04-29T22:16:12.747Z,99.90
2023-04-29T22:18:39.988Z,99.90
2023-04-29T22:21:11.439Z,99.90
2023-04-29T22:23:38.210Z,99.90
2023-04-29T22:26:05.505Z,99.90
2023-04-29T22:28:32.292Z,99.90
2023-04-29T22:30:59.331Z,99.90
2023-04-29T22:33:26.268Z,99.90
2023-04-29T22:35:53.022Z,99.90
2023-04-29T22:38:20.124Z,99.90
2023-04-29T22:40:51.404Z,99.90
2023-04-29T22:43:20.928Z,99.90
2023-04-29T22:45:52.530Z,99.90
2023-04-29T22:48:19.706Z,99.90
2023-04-29T22:50:53.523Z,99.90
2023-04-29T22:53:21.195Z,99.90
2023-04-29T22:55:56.055Z,99.90
2023-04-29T22:58:25.537Z,99.90
2023-04-29T23:00:54.284Z,99.90
2023-04-29T23:03:21.495Z,99.90
2023-04-29T23:05:48.710Z,99.90
2023-04-29T23:08:15.709Z,99.90
2023-04-29T23:10:47.784Z,99.90
2023-04-29T23:13:15.048Z,99.90
2023-04-29T23:15:41.794Z,99.90
2023-04-29T23:18:08.727Z,99.90
2023-04-29T23:20:35.893Z,99.90
2023-04-29T23:23:02.759Z,99.90
2023-04-29T23:25:29.829Z,99.90
2023-04-29T23:27:56.853Z,99.90
2023-04-29T23:30:23.659Z,99.90
2023-04-29T23:32:50.878Z,99.90
2023-04-29T23:35:17.684Z,99.90
2023-04-29T23:37:44.456Z,99.90
2023-04-29T23:40:11.424Z,99.90
2023-04-29T23:42:38.487Z,99.90
2023-04-29T23:45:08.701Z,99.90
2023-04-29T23:47:35.514Z,99.90
2023-04-29T23:50:02.673Z,99.90
2023-04-29T23:52:30.900Z,99.90
2023-04-29T23:54:57.697Z,99.90
2023-04-29T23:57:24.508Z,99.90
2023-04-29T23:59:51.745Z,99.90
